createdAt,value
2019-06-20T00:00:51.928Z,11.97
2019-06-20T00:03:20.668Z,11.83
2019-06-20T00:05:49.464Z,11.50
2019-06-20T00:08:18.118Z,10.20
2019-06-20T00:10:46.784Z,7.85
2019-06-20T00:13:15.490Z,5.17
2019-06-20T00:15:44.111Z,3.60
2019-06-20T00:18:12.776Z,5.20
2019-06-20T00:20:41.439Z,3.55
2019-06-20T00:23:10.047Z,4.87
2019-06-20T00:25:38.677Z,3.67
2019-06-20T00:28:07.322Z,6.42
2019-06-20T00:30:36.022Z,3.77
2019-06-20T00:33:04.694Z,2.42
2019-06-20T00:35:33.390Z,2.72
2019-06-20T00:38:02.111Z,2.17
2019-06-20T00:40:30.848Z,2.72
2019-06-20T00:42:59.563Z,4.05
2019-06-20T00:45:28.273Z,1.77
2019-06-20T00:47:56.857Z,3.62
2019-06-20T00:50:25.923Z,2.22
2019-06-20T00:52:54.560Z,3.98
2019-06-20T00:55:23.311Z,4.05
2019-06-20T00:57:51.956Z,2.37
2019-06-20T01:00:20.856Z,1.70
2019-06-20T01:02:49.602Z,3.05
2019-06-20T01:05:18.313Z,2.80
2019-06-20T01:07:46.965Z,2.10
2019-06-20T01:10:17.357Z,4.53
2019-06-20T01:12:45.916Z,5.50
2019-06-20T01:15:14.845Z,4.33
2019-06-20T01:17:43.677Z,3.05
2019-06-20T01:20:12.973Z,2.42
2019-06-20T01:22:41.555Z,4.47
2019-06-20T01:25:10.945Z,5.60
2019-06-20T01:27:41.672Z,2.87
2019-06-20T01:30:12.468Z,2.65
2019-06-20T01:32:41.117Z,5.15
2019-06-20T01:35:10.517Z,3.12
2019-06-20T01:37:39.147Z,2.30
2019-06-20T01:40:07.983Z,3.70
2019-06-20T01:42:36.692Z,5.00
2019-06-20T01:45:08.937Z,3.47
2019-06-20T01:47:37.937Z,3.65
2019-06-20T01:50:07.245Z,5.50
2019-06-20T01:52:35.891Z,3.90
2019-06-20T01:55:06.342Z,2.77
2019-06-20T01:57:35.043Z,3.00
2019-06-20T02:00:05.488Z,2.75
2019-06-20T02:02:35.158Z,6.10
2019-06-20T02:05:06.364Z,2.47
2019-06-20T02:07:35.274Z,5.67
2019-06-20T02:10:05.475Z,2.70
2019-06-20T02:12:34.112Z,3.83
2019-06-20T02:15:02.826Z,5.35
2019-06-20T02:17:31.433Z,3.40
2019-06-20T02:20:00.078Z,5.67
2019-06-20T02:22:28.725Z,5.58
2019-06-20T02:24:57.306Z,4.45
2019-06-20T02:27:25.867Z,4.42
2019-06-20T02:29:54.442Z,4.15
2019-06-20T02:32:23.115Z,3.33
2019-06-20T02:34:51.681Z,4.95
2019-06-20T02:37:20.263Z,6.12
2019-06-20T02:39:48.928Z,3.22
2019-06-20T02:42:17.552Z,5.03
2019-06-20T02:44:46.195Z,4.67
2019-06-20T02:47:14.932Z,4.00
2019-06-20T02:49:43.587Z,4.05
2019-06-20T02:52:12.693Z,2.80
2019-06-20T02:54:41.370Z,4.60
2019-06-20T02:57:10.006Z,5.67
2019-06-20T02:59:38.671Z,4.25
2019-06-20T03:02:07.280Z,2.75
2019-06-20T03:04:36.245Z,7.12
2019-06-20T03:07:04.961Z,3.70
2019-06-20T03:09:33.626Z,2.62
2019-06-20T03:12:02.191Z,3.75
2019-06-20T03:14:44.638Z,4.42
2019-06-20T03:17:01.069Z,6.00
2019-06-20T03:19:29.631Z,4.50
2019-06-20T03:21:58.194Z,4.22
2019-06-20T03:24:26.797Z,4.67
2019-06-20T03:26:55.355Z,3.55
2019-06-20T03:29:23.989Z,9.63
2019-06-20T03:31:52.649Z,5.03
2019-06-20T03:34:21.287Z,7.33
2019-06-20T03:36:50.133Z,6.55
2019-06-20T03:39:18.861Z,5.17
2019-06-20T03:41:47.417Z,4.60
2019-06-20T03:44:16.050Z,4.85
2019-06-20T03:46:44.793Z,4.12
2019-06-20T03:49:13.383Z,5.20
2019-06-20T03:51:42.167Z,4.67
2019-06-20T03:54:10.837Z,5.85
2019-06-20T03:56:39.480Z,4.20
2019-06-20T03:59:08.057Z,6.00
2019-06-20T04:01:36.727Z,5.42
2019-06-20T04:04:05.286Z,6.70
2019-06-20T04:06:33.922Z,4.85
2019-06-20T04:09:02.683Z,5.05
2019-06-20T04:11:31.251Z,7.33
2019-06-20T04:14:00.222Z,9.00
2019-06-20T04:16:28.967Z,4.95
2019-06-20T04:18:57.526Z,5.28
2019-06-20T04:21:26.241Z,8.68
2019-06-20T04:23:54.916Z,4.67
2019-06-20T04:26:23.550Z,6.70
2019-06-20T04:28:52.114Z,5.70
2019-06-20T04:31:20.943Z,4.08
2019-06-20T04:33:49.508Z,4.05
2019-06-20T04:36:37.515Z,4.37
2019-06-20T04:39:18.686Z,4.03
2019-06-20T04:41:37.974Z,5.50
2019-06-20T04:44:06.716Z,4.70
2019-06-20T04:46:52.102Z,8.33
2019-06-20T04:49:20.844Z,4.55
2019-06-20T04:51:49.475Z,3.52
2019-06-20T04:54:18.133Z,6.95
2019-06-20T04:56:46.861Z,6.33
2019-06-20T04:59:15.591Z,4.78
2019-06-20T05:01:44.334Z,4.80
2019-06-20T05:04:12.928Z,5.97
2019-06-20T05:06:42.626Z,8.03
2019-06-20T05:09:11.381Z,8.83
2019-06-20T05:11:40.150Z,7.85
2019-06-20T05:14:08.852Z,5.47
2019-06-20T05:16:37.564Z,10.18
2019-06-20T05:19:06.321Z,9.83
2019-06-20T05:21:34.950Z,8.03
2019-06-20T05:24:04.074Z,6.83
2019-06-20T05:26:32.826Z,7.25
2019-06-20T05:29:04.606Z,4.95
2019-06-20T05:31:31.817Z,5.97
2019-06-20T05:34:00.490Z,7.92
2019-06-20T05:36:29.142Z,8.58
2019-06-20T05:38:57.716Z,6.95
2019-06-20T05:41:26.313Z,5.87
2019-06-20T05:43:54.888Z,6.50
2019-06-20T05:46:23.528Z,8.28
2019-06-20T05:48:52.289Z,10.53
2019-06-20T05:51:20.899Z,7.97
2019-06-20T05:53:49.616Z,6.60
2019-06-20T05:56:18.283Z,9.83
2019-06-20T05:58:46.920Z,5.87
2019-06-20T06:01:15.612Z,5.90
2019-06-20T06:03:44.275Z,6.22
2019-06-20T06:06:12.912Z,7.80
2019-06-20T06:08:41.473Z,4.95
2019-06-20T06:11:10.409Z,11.15
2019-06-20T06:13:40.302Z,6.25
2019-06-20T06:16:25.138Z,9.60
2019-06-20T06:18:39.297Z,6.47
2019-06-20T06:21:08.162Z,6.15
2019-06-20T06:23:36.874Z,9.10
2019-06-20T06:26:05.723Z,5.97
2019-06-20T06:28:34.274Z,7.55
2019-06-20T06:31:02.975Z,6.87
2019-06-20T06:33:31.649Z,4.80
2019-06-20T06:36:00.322Z,4.65
2019-06-20T06:38:29.010Z,6.25
2019-06-20T06:40:57.795Z,6.15
2019-06-20T06:43:26.373Z,11.78
2019-06-20T06:45:55.074Z,6.53
2019-06-20T06:48:23.751Z,7.65
2019-06-20T06:50:52.399Z,8.05
2019-06-20T06:53:21.039Z,5.78
2019-06-20T06:55:51.021Z,6.50
2019-06-20T06:58:19.574Z,7.92
2019-06-20T07:00:48.353Z,5.80
2019-06-20T07:03:17.091Z,8.18
2019-06-20T07:05:45.858Z,5.87
2019-06-20T07:08:14.497Z,4.50
2019-06-20T07:10:44.555Z,6.80
2019-06-20T07:13:13.196Z,9.65
2019-06-20T07:15:41.968Z,5.35
2019-06-20T07:18:10.703Z,6.33
2019-06-20T07:20:39.346Z,4.90
2019-06-20T07:23:07.915Z,7.58
2019-06-20T07:25:36.649Z,3.90
2019-06-20T07:28:05.378Z,12.23
2019-06-20T07:30:34.005Z,7.75
2019-06-20T07:33:02.756Z,3.17
2019-06-20T07:35:31.418Z,6.85
2019-06-20T07:38:00.045Z,4.25
2019-06-20T07:40:28.829Z,5.67
2019-06-20T07:42:57.822Z,3.65
2019-06-20T07:45:27.692Z,5.47
2019-06-20T07:47:56.777Z,5.95
2019-06-20T07:50:25.484Z,3.50
2019-06-20T07:53:02.120Z,5.53
2019-06-20T07:55:24.607Z,4.35
2019-06-20T07:57:53.309Z,3.87
2019-06-20T08:00:22.436Z,5.10
2019-06-20T08:02:51.580Z,3.42
2019-06-20T08:05:20.555Z,4.67
2019-06-20T08:07:50.113Z,2.70
2019-06-20T08:10:20.370Z,4.58
2019-06-20T08:12:49.109Z,7.28
2019-06-20T08:15:19.854Z,3.27
2019-06-20T08:17:48.491Z,4.33
2019-06-20T08:20:18.968Z,3.08
2019-06-20T08:22:47.671Z,2.70
2019-06-20T08:25:17.023Z,2.75
2019-06-20T08:27:57.147Z,2.87
2019-06-20T08:30:33.890Z,4.80
2019-06-20T08:33:07.443Z,2.85
2019-06-20T08:35:34.345Z,2.30
2019-06-20T08:38:04.115Z,3.37
2019-06-20T08:40:36.489Z,2.58
2019-06-20T08:43:06.313Z,4.30
2019-06-20T08:45:36.032Z,3.17
2019-06-20T08:48:05.047Z,2.72
2019-06-20T08:50:33.744Z,4.53
2019-06-20T08:53:03.649Z,5.05
2019-06-20T08:55:32.438Z,2.22
2019-06-20T08:58:01.736Z,3.42
2019-06-20T09:00:32.854Z,5.50
2019-06-20T09:05:31.239Z,3.25
2019-06-20T09:10:38.509Z,3.60
2019-06-20T09:13:07.544Z,5.20
2019-06-20T09:15:36.467Z,2.45
2019-06-20T09:18:06.378Z,2.40
2019-06-20T09:20:35.800Z,3.22
2019-06-20T09:23:05.309Z,3.60
2019-06-20T09:25:34.108Z,3.25
2019-06-20T09:28:03.444Z,2.42
2019-06-20T09:30:32.396Z,3.45
2019-06-20T09:33:01.105Z,2.05
2019-06-20T09:35:29.834Z,2.12
2019-06-20T09:37:59.329Z,2.17
2019-06-20T09:40:28.079Z,3.98
2019-06-20T09:42:56.813Z,4.58
2019-06-20T09:45:25.803Z,2.50
2019-06-20T09:47:55.931Z,2.20
2019-06-20T09:50:25.652Z,2.17
2019-06-20T09:52:54.890Z,2.15
2019-06-20T09:55:24.739Z,2.60
2019-06-20T09:57:53.731Z,3.08
2019-06-20T10:00:25.118Z,3.20
2019-06-20T10:02:55.703Z,2.02
2019-06-20T10:05:24.426Z,3.83
2019-06-20T10:07:54.388Z,2.35
2019-06-20T10:10:29.106Z,2.12
2019-06-20T10:12:58.312Z,2.72
2019-06-20T10:15:29.243Z,1.98
2019-06-20T10:17:58.673Z,3.65
2019-06-20T10:20:28.562Z,2.22
2019-06-20T10:22:57.562Z,5.05
2019-06-20T10:25:26.318Z,4.70
2019-06-20T10:27:55.015Z,2.33
2019-06-20T10:30:24.726Z,2.00
2019-06-20T10:32:54.576Z,4.55
2019-06-20T10:35:23.295Z,4.10
2019-06-20T10:37:52.997Z,2.70
2019-06-20T10:40:23.928Z,1.60
2019-06-20T10:42:53.083Z,2.75
2019-06-20T10:45:24.244Z,2.50
2019-06-20T10:47:53.360Z,1.47
2019-06-20T10:50:22.998Z,11.12
2019-06-20T10:52:52.031Z,4.20
2019-06-20T10:55:20.932Z,1.55
2019-06-20T10:57:50.012Z,2.37
2019-06-20T11:00:30.398Z,1.80
2019-06-20T11:02:51.218Z,1.77
2019-06-20T11:05:20.599Z,2.27
2019-06-20T11:07:50.026Z,2.80
2019-06-20T11:10:19.476Z,4.65
2019-06-20T11:12:54.846Z,2.42
2019-06-20T11:15:19.654Z,2.40
2019-06-20T11:17:49.281Z,4.55
2019-06-20T11:20:19.777Z,2.33
2019-06-20T11:22:48.482Z,1.72
2019-06-20T11:25:19.326Z,2.35
2019-06-20T11:27:48.021Z,2.10
2019-06-20T11:30:19.283Z,2.40
2019-06-20T11:32:48.822Z,2.62
2019-06-20T11:35:17.950Z,3.17
2019-06-20T11:37:47.296Z,2.25
2019-06-20T11:40:16.578Z,5.67
2019-06-20T11:42:46.716Z,2.67
2019-06-20T11:45:15.918Z,3.02
2019-06-20T11:47:44.654Z,3.52
2019-06-20T11:50:13.457Z,2.50
2019-06-20T11:52:44.292Z,2.92
2019-06-20T11:55:14.265Z,3.20
2019-06-20T11:57:42.987Z,4.12
2019-06-20T12:00:12.560Z,2.72
2019-06-20T12:02:42.794Z,2.40
2019-06-20T12:05:12.402Z,2.62
2019-06-20T12:07:41.642Z,2.65
2019-06-20T12:10:13.262Z,3.27
2019-06-20T12:12:42.602Z,2.30
2019-06-20T12:15:14.136Z,2.55
2019-06-20T12:17:43.413Z,3.60
2019-06-20T12:20:13.735Z,2.30
2019-06-20T12:22:43.243Z,2.58
2019-06-20T12:25:14.417Z,2.70
2019-06-20T12:27:43.341Z,3.17
2019-06-20T12:30:14.686Z,4.17
2019-06-20T12:32:44.612Z,3.00
2019-06-20T12:35:14.113Z,3.12
2019-06-20T12:37:45.184Z,3.55
2019-06-20T12:40:16.212Z,3.35
2019-06-20T12:42:44.966Z,3.58
2019-06-20T12:45:15.698Z,4.15
2019-06-20T12:47:45.885Z,3.85
2019-06-20T12:50:35.718Z,3.05
2019-06-20T12:53:17.001Z,3.33
2019-06-20T12:55:45.929Z,2.77
2019-06-20T12:58:14.478Z,3.15
2019-06-20T13:00:44.815Z,3.15
2019-06-20T13:03:13.581Z,3.12
2019-06-20T13:05:43.273Z,5.20
2019-06-20T13:08:13.677Z,3.85
2019-06-20T13:10:43.939Z,3.17
2019-06-20T13:13:13.121Z,3.60
2019-06-20T13:15:42.504Z,3.77
2019-06-20T13:18:11.219Z,5.65
2019-06-20T13:20:40.643Z,3.70
2019-06-20T13:23:09.849Z,3.72
2019-06-20T13:25:39.553Z,3.60
2019-06-20T13:28:08.849Z,3.45
2019-06-20T13:30:38.509Z,3.80
2019-06-20T13:33:07.939Z,5.75
2019-06-20T13:35:36.698Z,3.00
2019-06-20T13:38:05.448Z,3.37
2019-06-20T13:40:34.247Z,7.20
2019-06-20T13:43:02.963Z,3.47
2019-06-20T13:45:31.714Z,3.77
2019-06-20T13:48:00.346Z,3.95
2019-06-20T13:50:29.054Z,4.53
2019-06-20T13:52:57.871Z,3.83
2019-06-20T13:55:26.802Z,5.00
2019-06-20T13:57:55.506Z,4.95
2019-06-20T14:00:25.154Z,4.25
2019-06-20T14:02:54.080Z,4.30
2019-06-20T14:05:22.756Z,8.13
2019-06-20T14:07:55.411Z,3.77
2019-06-20T14:10:22.066Z,3.52
2019-06-20T14:12:50.784Z,3.37
2019-06-20T14:15:19.945Z,5.75
2019-06-20T14:17:50.831Z,3.85
2019-06-20T14:20:19.616Z,3.90
2019-06-20T14:22:49.638Z,3.83
2019-06-20T14:25:18.925Z,8.18
2019-06-20T14:27:48.972Z,4.05
2019-06-20T14:30:18.321Z,4.22
2019-06-20T14:32:47.210Z,4.00
2019-06-20T14:35:16.999Z,5.83
2019-06-20T14:37:47.291Z,4.83
2019-06-20T14:40:16.312Z,4.30
2019-06-20T14:42:45.927Z,4.20
2019-06-20T14:45:14.990Z,4.45
2019-06-20T14:47:45.073Z,9.15
2019-06-20T14:50:14.689Z,4.50
2019-06-20T14:52:44.575Z,5.30
2019-06-20T14:55:14.696Z,4.17
2019-06-20T14:57:44.660Z,3.15
2019-06-20T15:00:14.680Z,7.08
2019-06-20T15:02:43.745Z,3.90
2019-06-20T15:05:18.913Z,3.92
2019-06-20T15:07:49.431Z,4.58
2019-06-20T15:10:18.317Z,4.15
2019-06-20T15:12:48.391Z,6.45
2019-06-20T15:15:17.933Z,4.35
2019-06-20T15:17:47.488Z,4.00
2019-06-20T15:20:19.045Z,4.90
2019-06-20T15:22:49.303Z,4.08
2019-06-20T15:25:18.044Z,4.47
2019-06-20T15:27:48.089Z,5.50
2019-06-20T15:30:17.792Z,3.15
2019-06-20T15:33:00.790Z,5.90
2019-06-20T15:35:17.368Z,4.45
2019-06-20T15:37:46.643Z,4.50
2019-06-20T15:40:16.505Z,4.62
2019-06-20T15:42:45.204Z,3.12
2019-06-20T15:45:14.153Z,3.35
2019-06-20T15:47:42.856Z,2.60
2019-06-20T15:50:12.507Z,3.12
2019-06-20T15:52:41.641Z,3.92
2019-06-20T15:55:11.139Z,3.52
2019-06-20T15:57:40.116Z,3.15
2019-06-20T16:00:10.016Z,3.50
2019-06-20T16:02:38.717Z,4.10
2019-06-20T16:05:07.939Z,3.37
2019-06-20T16:07:36.995Z,4.55
2019-06-20T16:10:06.905Z,3.42
2019-06-20T16:12:35.596Z,3.62
2019-06-20T16:15:06.659Z,3.70
2019-06-20T16:17:35.333Z,3.15
2019-06-20T16:20:05.425Z,3.58
2019-06-20T16:22:34.169Z,4.65
2019-06-20T16:25:02.825Z,4.70
2019-06-20T16:27:31.551Z,3.10
2019-06-20T16:30:00.208Z,5.03
2019-06-20T16:32:28.845Z,5.30
2019-06-20T16:34:57.480Z,2.98
2019-06-20T16:37:26.159Z,3.50
2019-06-20T16:39:56.388Z,3.42
2019-06-20T16:42:24.981Z,3.42
2019-06-20T16:44:54.944Z,3.77
2019-06-20T16:47:23.589Z,5.00
2019-06-20T16:49:52.149Z,5.67
2019-06-20T16:52:40.191Z,4.58
2019-06-20T16:55:09.952Z,4.17
2019-06-20T16:57:38.663Z,5.65
2019-06-20T17:00:11.708Z,5.17
2019-06-20T17:02:40.413Z,9.45
2019-06-20T17:05:10.633Z,7.17
2019-06-20T17:07:39.282Z,5.33
2019-06-20T17:10:08.276Z,5.42
2019-06-20T17:12:37.005Z,10.43
2019-06-20T17:15:07.827Z,6.83
2019-06-20T17:17:36.527Z,6.72
2019-06-20T17:20:07.001Z,8.45
2019-06-20T17:22:35.700Z,9.63
2019-06-20T17:25:08.468Z,6.37
2019-06-20T17:27:37.110Z,7.97
2019-06-20T17:30:08.794Z,7.10
2019-06-20T17:32:37.519Z,5.72
2019-06-20T17:35:08.324Z,9.43
2019-06-20T17:37:37.198Z,11.03
2019-06-20T17:40:08.853Z,7.58
2019-06-20T17:42:37.677Z,8.55
2019-06-20T17:45:07.483Z,8.08
2019-06-20T17:47:36.212Z,7.97
2019-06-20T17:50:07.301Z,11.05
2019-06-20T17:52:36.061Z,8.60
2019-06-20T17:55:07.223Z,8.98
2019-06-20T17:57:36.045Z,9.80
2019-06-20T18:00:07.531Z,30.23
2019-06-20T18:02:36.378Z,87.95
2019-06-20T18:05:07.063Z,27.10
2019-06-20T18:07:35.800Z,12.00
2019-06-20T18:10:09.913Z,10.68
2019-06-20T18:12:38.616Z,10.45
2019-06-20T18:15:08.676Z,8.88
2019-06-20T18:17:37.321Z,10.88
2019-06-20T18:20:07.138Z,11.93
2019-06-20T18:22:35.806Z,11.53
2019-06-20T18:25:06.027Z,11.10
2019-06-20T18:27:34.728Z,10.72
2019-06-20T18:30:04.997Z,12.15
2019-06-20T18:32:33.772Z,12.25
2019-06-20T18:35:02.810Z,9.23
2019-06-20T18:37:31.994Z,11.25
2019-06-20T18:40:00.997Z,10.90
2019-06-20T18:42:29.773Z,11.48
2019-06-20T18:44:58.449Z,12.82
2019-06-20T18:47:27.159Z,10.98
2019-06-20T18:49:55.879Z,10.55
2019-06-20T18:52:24.622Z,13.00
2019-06-20T18:54:53.409Z,12.05
2019-06-20T18:57:22.107Z,10.93
2019-06-20T18:59:50.867Z,10.40
2019-06-20T19:02:19.579Z,13.05
2019-06-20T19:04:50.831Z,10.43
2019-06-20T19:07:18.761Z,11.38
2019-06-20T19:09:47.854Z,10.60
2019-06-20T19:12:16.737Z,11.38
2019-06-20T19:14:45.438Z,10.78
2019-06-20T19:17:14.866Z,11.63
2019-06-20T19:19:43.527Z,13.03
2019-06-20T19:22:12.298Z,13.60
2019-06-20T19:24:40.946Z,10.90
2019-06-20T19:27:09.643Z,11.80
2019-06-20T19:29:38.416Z,12.28
2019-06-20T19:32:07.013Z,10.13
2019-06-20T19:34:35.657Z,10.35
2019-06-20T19:37:04.820Z,12.23
2019-06-20T19:39:33.636Z,10.82
2019-06-20T19:42:02.335Z,11.55
2019-06-20T19:44:31.023Z,9.10
2019-06-20T19:46:59.866Z,9.88
2019-06-20T19:49:28.592Z,11.10
2019-06-20T19:51:57.339Z,10.65
2019-06-20T19:54:26.047Z,9.75
2019-06-20T19:56:54.765Z,9.00
2019-06-20T19:59:23.521Z,13.00
2019-06-20T20:01:52.220Z,12.93
2019-06-20T20:04:20.937Z,11.60
2019-06-20T20:06:49.699Z,11.33
2019-06-20T20:09:18.631Z,13.95
2019-06-20T20:11:47.259Z,15.30
2019-06-20T20:14:15.940Z,13.25
2019-06-20T20:16:44.663Z,16.87
2019-06-20T20:19:13.320Z,18.02
2019-06-20T20:21:41.933Z,18.45
2019-06-20T20:24:10.509Z,15.53
2019-06-20T20:26:39.171Z,14.90
2019-06-20T20:29:07.845Z,14.87
2019-06-20T20:31:36.450Z,18.98
2019-06-20T20:34:05.251Z,12.95
2019-06-20T20:36:33.925Z,15.55
2019-06-20T20:39:02.506Z,15.40
2019-06-20T20:41:31.216Z,15.18
2019-06-20T20:43:59.891Z,17.07
2019-06-20T20:46:28.475Z,14.78
2019-06-20T20:48:57.260Z,18.30
2019-06-20T20:51:25.899Z,16.00
2019-06-20T20:53:54.911Z,17.57
2019-06-20T20:56:23.624Z,16.67
2019-06-20T20:58:52.373Z,17.32
2019-06-20T21:01:30.139Z,19.32
2019-06-20T21:04:00.366Z,18.65
2019-06-20T21:06:29.613Z,18.57
2019-06-20T21:08:58.204Z,17.32
2019-06-20T21:11:26.883Z,16.42
2019-06-20T21:13:55.637Z,17.55
2019-06-20T21:16:24.348Z,15.80
2019-06-20T21:18:53.121Z,16.73
2019-06-20T21:21:21.675Z,14.05
2019-06-20T21:23:50.319Z,15.72
2019-06-20T21:26:18.977Z,16.30
2019-06-20T21:28:47.873Z,17.12
2019-06-20T21:31:16.530Z,15.60
2019-06-20T21:33:45.287Z,18.05
2019-06-20T21:36:14.021Z,17.45
2019-06-20T21:38:42.617Z,18.87
2019-06-20T21:41:11.386Z,13.83
2019-06-20T21:43:39.945Z,13.85
2019-06-20T21:46:08.720Z,16.42
2019-06-20T21:48:37.476Z,15.90
2019-06-20T21:51:06.488Z,17.62
2019-06-20T21:53:35.162Z,13.58
2019-06-20T21:56:03.918Z,14.43
2019-06-20T21:58:32.640Z,19.07
2019-06-20T22:01:02.413Z,16.37
2019-06-20T22:03:31.397Z,14.45
2019-06-20T22:06:00.048Z,16.17
2019-06-20T22:08:28.680Z,15.08
2019-06-20T22:10:57.429Z,17.37
2019-06-20T22:13:26.149Z,18.73
2019-06-20T22:15:54.878Z,16.75
2019-06-20T22:18:23.613Z,16.20
2019-06-20T22:20:52.330Z,18.27
2019-06-20T22:23:21.000Z,19.25
2019-06-20T22:25:49.742Z,18.95
2019-06-20T22:28:18.533Z,18.50
2019-06-20T22:30:52.613Z,28.17
2019-06-20T22:33:21.357Z,20.35
2019-06-20T22:35:50.062Z,21.73
2019-06-20T22:38:18.794Z,20.40
2019-06-20T22:40:47.624Z,20.30
2019-06-20T22:43:16.438Z,22.27
2019-06-20T22:45:45.553Z,22.35
2019-06-20T22:48:14.614Z,20.32
2019-06-20T22:50:43.422Z,20.68
2019-06-20T22:53:12.142Z,24.65
2019-06-20T22:55:40.817Z,25.85
2019-06-20T22:58:09.963Z,23.32
2019-06-20T23:00:38.759Z,23.87
2019-06-20T23:03:07.438Z,21.70
2019-06-20T23:05:36.452Z,21.17
2019-06-20T23:08:05.262Z,24.15
2019-06-20T23:10:33.930Z,26.20
2019-06-20T23:13:02.505Z,21.60
2019-06-20T23:15:31.158Z,31.37
2019-06-20T23:17:59.907Z,25.65
2019-06-20T23:20:28.569Z,28.07
2019-06-20T23:22:57.289Z,28.75
2019-06-20T23:25:25.968Z,30.82
2019-06-20T23:27:54.675Z,30.88
2019-06-20T23:30:25.001Z,27.30
2019-06-20T23:32:53.744Z,30.55
2019-06-20T23:35:22.393Z,26.93
2019-06-20T23:37:51.113Z,29.80
2019-06-20T23:40:21.626Z,25.55
2019-06-20T23:42:50.365Z,27.45
2019-06-20T23:45:19.571Z,31.57
2019-06-20T23:47:48.253Z,24.70
2019-06-20T23:50:19.631Z,30.95
2019-06-20T23:52:57.773Z,27.90
2019-06-20T23:55:26.422Z,30.02
2019-06-20T23:57:55.014Z,28.40
